KMCB/MCB METAR and TAF weather

Enter ICAO airport designator
Station Type Date Time Source
KMCB METAR 2019/10/15 22:05 UTC NOAA

KMCB 152205Z AUTO 00000KT 4SM VCTS RA BR SCT013 BKN050 OVC085 22/21 A2988 RMK AO2 LTG DSNT E AND SW AND W TSE2158 P0003 T02170211


Station Type Date Time Source
KMCB Decoded METAR 2019/10/15 22:05 UTC NOAA

MCCOMB/PIKE COUNTY AIRPORT, MS, United States (KMCB) 31-11N 90-28W 124M
Oct 15, 2019 - 06:05 PM EDT / 2019.10.15 2205 UTC
Wind: Calm:0
Visibility: 4 mile(s):0
Sky conditions: overcast
Weather: thunder in the vicinity; rain; mist; Lightning observed
Precipitation last hour: 0.03 inches
Temperature: 71.1 F (21.7 C)
Dew Point: 70.0 F (21.1 C)
Relative Humidity: 96%
Pressure (altimeter): 29.88 in. Hg (1011 hPa)
ob: KMCB 152205Z AUTO 00000KT 4SM VCTS RA BR SCT013 BKN050 OVC085 22/21 A2988 RMK AO2 LTG DSNT E AND SW AND W TSE2158 P0003 T02170211
cycle: 22

Station Type Date Time Source
KMCB TAF 2019/10/15 19:06 UTC NOAA

TAF
AMD KMCB 151903Z 1519/1618 20007KT P6SM -SHRA VCTS BKN025CB OVC035
FM160100 VRB04KT 6SM -RA BR BKN020 OVC050
FM161000 32010KT 2SM RA BR SCT005 OVC015
FM161500 34009KT 4SM BR SCT003 OVC008
FM161600 34010KT P6SM SCT008 OVC025

Example: see airport list